Time;durP1;ratioP1;P1;durP2;ratioP2;P2;SDS_P1;SDS_P2;PMS_P1;PMS_P2;Temp;Humidity;BMP_temperature;BMP_pressure;BME280_temperature;BME280_humidity;BME280_pressure;Samples;Min_cycle;Max_cycle;Signal;HPM_P1;HPM_P2
2022/01/02 00:01:01;;;;;;;;;;;13.50;99.90;;;;;;5078982;28;19935;-86
2022/01/02 00:03:50;;;;;;;;;;;13.50;99.90;;;;;;5079684;28;19943;-89
2022/01/02 00:06:38;;;;;;;;;;;13.70;99.90;;;;;;5080906;28;19935;-86
2022/01/02 00:09:30;;;;;;;;;;;13.60;99.90;;;;;;5074175;28;19935;-87
2022/01/02 00:12:17;;;;;;;;;;;13.60;99.90;;;;;;5089231;28;19936;-86
2022/01/02 00:15:05;;;;;;;;;;;13.60;99.90;;;;;;5076880;28;19959;-87
2022/01/02 00:17:53;;;;;;;;;;;13.50;99.90;;;;;;5063650;28;19931;-86
2022/01/02 00:20:49;;;;;;;;;;;13.50;99.90;;;;;;5071370;28;19928;-87
2022/01/02 00:23:58;;;;;;;;;;;13.60;99.90;;;;;;5068250;28;19935;-87
2022/01/02 00:26:46;;;;;;;;;;;13.50;99.90;;;;;;5067465;28;19947;-87
2022/01/02 00:29:32;;;;;;;;;;;13.60;99.90;;;;;;5075999;28;19939;-87
2022/01/02 00:32:20;;;;;;;;;;;13.60;99.90;;;;;;5073097;28;19936;-86
2022/01/02 00:35:07;;;;;;;;;;;13.60;99.90;;;;;;5071278;28;19931;-87
2022/01/02 00:37:54;;;;;;;;;;;13.60;99.90;;;;;;5076266;28;19935;-88
2022/01/02 00:40:44;;;;;;;;;;;13.60;99.90;;;;;;5065394;28;19936;-89
2022/01/02 00:43:46;;;;;;;;;;;13.60;99.90;;;;;;5071179;28;19935;-86
2022/01/02 00:46:34;;;;;;;;;;;13.60;99.90;;;;;;5077783;28;19932;-86
2022/01/02 00:49:24;;;;;;;;;;;14.30;99.90;;;;;;5077500;28;20319;-86
2022/01/02 00:52:16;;;;;;;;;;;13.60;99.90;;;;;;5064745;28;19978;-87
2022/01/02 00:55:06;;;;;;;;;;;13.60;99.90;;;;;;5070241;28;19935;-87
2022/01/02 00:58:08;;;;;;;;;;;13.60;99.90;;;;;;5075495;28;19955;-87
2022/01/02 01:00:59;;;;;;;;;;;13.50;99.90;;;;;;5074994;28;20301;-86
2022/01/02 01:03:47;;;;;;;;;;;13.60;99.90;;;;;;5077991;28;20241;-87
2022/01/02 01:06:36;;;;;;;;;;;13.60;99.90;;;;;;5064295;28;19955;-87
2022/01/02 01:09:22;;;;;;;;;;;13.60;99.90;;;;;;5079624;28;19940;-86
2022/01/02 01:12:10;;;;;;;;;;;13.60;99.90;;;;;;5062504;28;19959;-87
2022/01/02 01:14:57;;;;;;;;;;;13.60;99.90;;;;;;5046185;28;20410;-86
2022/01/02 01:17:43;;;;;;;;;;;13.50;99.90;;;;;;5074701;28;19931;-87
2022/01/02 01:20:31;;;;;;;;;;;13.50;99.90;;;;;;5079255;28;19975;-86
2022/01/02 01:23:18;;;;;;;;;;;13.60;99.90;;;;;;5075111;28;19925;-87
2022/01/02 01:26:07;;;;;;;;;;;13.60;99.90;;;;;;5063436;28;19947;-87
2022/01/02 01:28:53;;;;;;;;;;;13.60;99.90;;;;;;5077828;28;20401;-88
2022/01/02 01:31:39;;;;;;;;;;;13.50;99.90;;;;;;5077510;28;19936;-87
2022/01/02 01:34:27;;;;;;;;;;;13.50;99.90;;;;;;5056472;28;20295;-88
2022/01/02 01:37:13;;;;;;;;;;;13.50;99.90;;;;;;5083365;28;19943;-87
2022/01/02 01:40:01;;;;;;;;;;;13.50;99.90;;;;;;5064172;28;19936;-87
2022/01/02 01:42:58;;;;;;;;;;;13.20;99.90;;;;;;5065019;28;19960;-87
2022/01/02 01:45:52;;;;;;;;;;;13.50;99.90;;;;;;5067985;28;19932;-87
2022/01/02 01:48:38;;;;;;;;;;;13.60;99.90;;;;;;5048047;28;19936;-85
2022/01/02 01:51:25;;;;;;;;;;;13.40;99.90;;;;;;5048740;28;19936;-86
2022/01/02 01:54:11;;;;;;;;;;;13.40;99.90;;;;;;5059190;28;20268;-86
2022/01/02 01:56:58;;;;;;;;;;;12.50;99.90;;;;;;5060005;28;19932;-87
2022/01/02 01:59:46;;;;;;;;;;;13.40;99.90;;;;;;5051722;28;19951;-86
2022/01/02 02:02:33;;;;;;;;;;;13.40;99.90;;;;;;5048807;28;19948;-86
2022/01/02 02:05:19;;;;;;;;;;;13.20;99.90;;;;;;5060654;28;19924;-86
2022/01/02 02:08:09;;;;;;;;;;;13.40;99.90;;;;;;5066052;28;19958;-86
2022/01/02 02:10:58;;;;;;;;;;;13.40;99.90;;;;;;5070693;28;20470;-87
2022/01/02 02:13:46;;;;;;;;;;;13.30;99.90;;;;;;5068462;28;19932;-86
2022/01/02 02:16:33;;;;;;;;;;;13.30;99.90;;;;;;5068489;28;19924;-86
2022/01/02 02:19:20;;;;;;;;;;;13.30;99.90;;;;;;5070089;28;19935;-87
2022/01/02 02:22:07;;;;;;;;;;;13.30;99.90;;;;;;5053418;28;19935;-86
2022/01/02 02:24:53;;;;;;;;;;;13.30;99.90;;;;;;5068226;28;20656;-86
2022/01/02 02:27:40;;;;;;;;;;;13.30;99.90;;;;;;5061368;28;19932;-86
2022/01/02 02:30:27;;;;;;;;;;;13.30;99.90;;;;;;5048786;28;19929;-86
2022/01/02 02:33:14;;;;;;;;;;;12.70;99.90;;;;;;5048192;28;19932;-86
2022/01/02 02:36:01;;;;;;;;;;;13.20;99.90;;;;;;5072088;28;19951;-86
2022/01/02 02:38:47;;;;;;;;;;;13.20;99.90;;;;;;5074382;28;19935;-86
2022/01/02 02:41:35;;;;;;;;;;;13.20;99.90;;;;;;5057421;28;20394;-86
2022/01/02 02:44:35;;;;;;;;;;;13.20;99.90;;;;;;5071361;28;19951;-86
2022/01/02 02:50:27;;;;;;;;;;;13.20;99.90;;;;;;5080664;28;19932;-86
2022/01/02 02:53:14;;;;;;;;;;;13.10;99.90;;;;;;5078958;28;19944;-87
2022/01/02 02:56:00;;;;;;;;;;;13.10;99.90;;;;;;5067244;28;20003;-86
2022/01/02 02:58:49;;;;;;;;;;;13.10;99.90;;;;;;5064142;28;19925;-86
2022/01/02 03:01:37;;;;;;;;;;;13.10;99.90;;;;;;5050052;28;19924;-86
2022/01/02 03:04:24;;;;;;;;;;;13.10;99.90;;;;;;5050433;28;19975;-87
2022/01/02 03:07:10;;;;;;;;;;;12.80;99.90;;;;;;5048786;28;19955;-86
2022/01/02 03:09:59;;;;;;;;;;;13.40;99.90;;;;;;5049977;28;20283;-87
2022/01/02 03:12:45;;;;;;;;;;;13.00;99.90;;;;;;5050131;28;20027;-87
2022/01/02 03:15:32;;;;;;;;;;;13.00;99.90;;;;;;5049034;28;19940;-88
2022/01/02 03:18:18;;;;;;;;;;;13.10;99.90;;;;;;5074550;28;19928;-87
2022/01/02 03:21:05;;;;;;;;;;;12.90;99.90;;;;;;5069079;28;19939;-87
2022/01/02 03:23:50;;;;;;;;;;;13.10;99.90;;;;;;5068018;28;19925;-88
2022/01/02 03:26:37;;;;;;;;;;;12.90;99.90;;;;;;5062394;28;20387;-89
2022/01/02 03:29:23;;;;;;;;;;;12.90;99.90;;;;;;5070115;28;19984;-86
2022/01/02 03:32:12;;;;;;;;;;;12.90;99.90;;;;;;5067437;28;19947;-87
2022/01/02 03:34:58;;;;;;;;;;;12.90;99.90;;;;;;5085463;28;19947;-85
2022/01/02 03:37:45;;;;;;;;;;;12.90;99.90;;;;;;5082857;28;19935;-89
2022/01/02 03:40:31;;;;;;;;;;;12.60;99.90;;;;;;5057152;28;19947;-87
2022/01/02 03:43:17;;;;;;;;;;;12.90;99.90;;;;;;5067878;28;19924;-88
2022/01/02 03:46:04;;;;;;;;;;;12.90;99.90;;;;;;5063479;28;19931;-87
2022/01/02 03:48:52;;;;;;;;;;;12.90;99.90;;;;;;5050560;28;19947;-87
2022/01/02 03:51:38;;;;;;;;;;;12.90;99.90;;;;;;5064634;28;20405;-88
2022/01/02 03:54:24;;;;;;;;;;;12.90;99.90;;;;;;5067091;28;19939;-87
2022/01/02 03:57:10;;;;;;;;;;;12.90;99.90;;;;;;5068351;28;20422;-89
2022/01/02 03:59:56;;;;;;;;;;;13.00;99.90;;;;;;5084112;28;19935;-87
2022/01/02 04:02:43;;;;;;;;;;;12.90;99.90;;;;;;5069638;28;19935;-89
2022/01/02 04:05:31;;;;;;;;;;;12.90;99.90;;;;;;5067108;28;19924;-88
2022/01/02 04:08:17;;;;;;;;;;;12.90;99.90;;;;;;5062572;28;19925;-90
2022/01/02 04:11:03;;;;;;;;;;;13.00;99.90;;;;;;5050476;28;19951;-88
2022/01/02 04:13:49;;;;;;;;;;;12.90;99.90;;;;;;5042122;28;19943;-87
2022/01/02 04:16:35;;;;;;;;;;;12.90;99.90;;;;;;5069294;28;19924;-87
2022/01/02 04:19:22;;;;;;;;;;;12.90;99.90;;;;;;5069772;28;19932;-89
2022/01/02 04:22:08;;;;;;;;;;;12.90;99.90;;;;;;5054764;28;19936;-87
2022/01/02 04:24:54;;;;;;;;;;;11.70;99.90;;;;;;5048897;28;20374;-87
2022/01/02 04:27:41;;;;;;;;;;;12.90;99.90;;;;;;5068641;28;19947;-88
2022/01/02 04:30:27;;;;;;;;;;;12.80;99.90;;;;;;5068613;28;19939;-88
2022/01/02 04:33:13;;;;;;;;;;;12.80;99.90;;;;;;5070751;28;19943;-89
2022/01/02 04:36:01;;;;;;;;;;;13.40;99.90;;;;;;5078535;28;20433;-87
2022/01/02 04:38:47;;;;;;;;;;;12.90;99.90;;;;;;5090834;28;19955;-88
2022/01/02 04:41:33;;;;;;;;;;;12.80;99.90;;;;;;5096635;28;19947;-87
2022/01/02 04:44:20;;;;;;;;;;;12.80;99.90;;;;;;5072323;28;20323;-87
2022/01/02 04:47:06;;;;;;;;;;;13.00;99.90;;;;;;5054411;28;19935;-87
2022/01/02 04:49:53;;;;;;;;;;;12.80;99.90;;;;;;5059157;28;19951;-87
2022/01/02 04:52:39;;;;;;;;;;;12.80;99.90;;;;;;5063776;28;19951;-87
2022/01/02 04:55:26;;;;;;;;;;;12.90;99.90;;;;;;5067423;28;19935;-88
2022/01/02 04:58:13;;;;;;;;;;;12.80;99.90;;;;;;5047764;28;19931;-88
2022/01/02 05:01:00;;;;;;;;;;;12.80;99.90;;;;;;5033604;28;20391;-87
2022/01/02 05:03:47;;;;;;;;;;;12.80;99.90;;;;;;5049171;28;19944;-87
2022/01/02 05:06:34;;;;;;;;;;;12.80;99.90;;;;;;5080732;28;19928;-87
2022/01/02 05:09:21;;;;;;;;;;;12.80;99.90;;;;;;5074057;28;19935;-88
2022/01/02 05:12:07;;;;;;;;;;;12.80;99.90;;;;;;5053228;28;20399;-88
2022/01/02 05:14:54;;;;;;;;;;;12.80;99.90;;;;;;5055752;28;19947;-89
2022/01/02 05:17:40;;;;;;;;;;;12.80;99.90;;;;;;5068708;28;19943;-87
2022/01/02 05:20:26;;;;;;;;;;;12.90;99.90;;;;;;5068171;28;20041;-87
2022/01/02 05:23:16;;;;;;;;;;;12.90;99.90;;;;;;5068041;28;19963;-88
2022/01/02 05:26:02;;;;;;;;;;;12.90;99.90;;;;;;5068203;28;19936;-88
2022/01/02 05:28:48;;;;;;;;;;;12.80;99.90;;;;;;5067920;28;20406;-88
2022/01/02 05:31:35;;;;;;;;;;;12.90;99.90;;;;;;5070257;28;19932;-88
2022/01/02 05:34:22;;;;;;;;;;;12.80;99.90;;;;;;5065852;28;19948;-89
2022/01/02 05:37:09;;;;;;;;;;;12.80;99.90;;;;;;5066384;28;19928;-88
2022/01/02 05:39:55;;;;;;;;;;;12.70;99.90;;;;;;5052657;28;19925;-86
2022/01/02 05:42:41;;;;;;;;;;;12.70;99.90;;;;;;5051028;28;19932;-87
2022/01/02 05:45:29;;;;;;;;;;;12.70;99.90;;;;;;5068263;28;20379;-86
2022/01/02 05:48:15;;;;;;;;;;;12.70;99.90;;;;;;5085942;28;20124;-87
2022/01/02 05:51:02;;;;;;;;;;;12.60;99.90;;;;;;5070036;28;19951;-86
2022/01/02 05:53:48;;;;;;;;;;;12.60;99.90;;;;;;5071191;28;19931;-87
2022/01/02 05:56:34;;;;;;;;;;;12.40;99.90;;;;;;5075785;28;19928;-89
2022/01/02 05:59:21;;;;;;;;;;;12.40;99.90;;;;;;5076234;28;19936;-87
2022/01/02 06:02:07;;;;;;;;;;;12.30;99.90;;;;;;5091489;28;20283;-87
2022/01/02 06:04:53;;;;;;;;;;;12.50;99.90;;;;;;5058717;28;19936;-88
2022/01/02 06:07:39;;;;;;;;;;;12.70;99.90;;;;;;5071291;28;19935;-88
2022/01/02 06:10:26;;;;;;;;;;;12.30;99.90;;;;;;5085622;28;20402;-87
2022/01/02 06:13:12;;;;;;;;;;;12.30;99.90;;;;;;5073309;28;19947;-86
2022/01/02 06:15:59;;;;;;;;;;;12.20;99.90;;;;;;5073349;28;20407;-86
2022/01/02 06:18:45;;;;;;;;;;;12.20;99.90;;;;;;5086400;28;19932;-88
2022/01/02 06:21:31;;;;;;;;;;;12.10;99.90;;;;;;5088041;28;19939;-86
2022/01/02 06:24:17;;;;;;;;;;;12.10;99.90;;;;;;5053244;28;20007;-87
2022/01/02 06:27:03;;;;;;;;;;;12.10;99.90;;;;;;5068036;28;19928;-86
2022/01/02 06:29:49;;;;;;;;;;;12.10;99.90;;;;;;5070991;28;19936;-87
2022/01/02 06:32:35;;;;;;;;;;;12.20;99.90;;;;;;5073025;28;19940;-86
2022/01/02 06:35:24;;;;;;;;;;;12.20;99.90;;;;;;5093645;28;20273;-87
2022/01/02 06:38:14;;;;;;;;;;;12.20;99.90;;;;;;5078024;28;20006;-87
2022/01/02 06:41:03;;;;;;;;;;;12.20;99.90;;;;;;5092832;28;19931;-87
2022/01/02 06:43:52;;;;;;;;;;;12.20;99.90;;;;;;5051880;28;19936;-88
2022/01/02 06:46:41;;;;;;;;;;;12.20;99.90;;;;;;5069018;28;19932;-88
2022/01/02 06:49:28;;;;;;;;;;;12.20;99.90;;;;;;5082777;28;19929;-87
2022/01/02 06:52:14;;;;;;;;;;;12.30;99.90;;;;;;5064801;28;19939;-85
2022/01/02 06:55:00;;;;;;;;;;;12.30;99.90;;;;;;5065655;28;19935;-89
2022/01/02 06:57:46;;;;;;;;;;;12.20;99.90;;;;;;5049426;28;19940;-88
2022/01/02 07:00:35;;;;;;;;;;;12.20;99.90;;;;;;5061507;28;19948;-88
2022/01/02 07:03:27;;;;;;;;;;;11.80;99.90;;;;;;5049084;28;19932;-88
2022/01/02 07:06:13;;;;;;;;;;;12.10;99.90;;;;;;5059631;28;19932;-86
2022/01/02 07:08:59;;;;;;;;;;;12.30;99.90;;;;;;5052455;28;19929;-86
2022/01/02 07:11:44;;;;;;;;;;;12.30;99.90;;;;;;5051988;28;19928;-88
2022/01/02 07:14:31;;;;;;;;;;;12.30;99.90;;;;;;5051161;28;19925;-86
2022/01/02 07:17:16;;;;;;;;;;;12.30;99.90;;;;;;5050476;28;19932;-88
2022/01/02 07:20:07;;;;;;;;;;;12.30;99.90;;;;;;5049660;28;19924;-87
2022/01/02 07:22:53;;;;;;;;;;;12.30;99.90;;;;;;5051387;28;19959;-87
2022/01/02 07:25:39;;;;;;;;;;;12.00;99.90;;;;;;5051594;28;19936;-86
2022/01/02 07:28:25;;;;;;;;;;;12.30;99.90;;;;;;5068282;28;19924;-88
2022/01/02 07:31:11;;;;;;;;;;;12.20;99.90;;;;;;5080529;28;19932;-88
2022/01/02 07:33:57;;;;;;;;;;;12.30;99.90;;;;;;5068173;28;19940;-88
2022/01/02 07:36:44;;;;;;;;;;;12.20;99.90;;;;;;5092347;28;19925;-86
2022/01/02 07:39:31;;;;;;;;;;;12.20;99.90;;;;;;5069054;28;19931;-88
2022/01/02 07:42:18;;;;;;;;;;;12.20;99.90;;;;;;5068929;28;19929;-88
2022/01/02 07:45:12;;;;;;;;;;;12.20;99.90;;;;;;5070817;28;19928;-88
2022/01/02 07:47:58;;;;;;;;;;;12.20;99.90;;;;;;5069032;28;19932;-87
2022/01/02 07:50:48;;;;;;;;;;;12.20;99.90;;;;;;5067848;28;19932;-87
2022/01/02 07:53:34;;;;;;;;;;;12.20;99.90;;;;;;5066502;28;19928;-88
2022/01/02 07:56:20;;;;;;;;;;;12.00;99.90;;;;;;5069263;28;19951;-88
2022/01/02 07:59:07;;;;;;;;;;;12.10;99.90;;;;;;5067611;28;19935;-86
2022/01/02 08:01:52;;;;;;;;;;;12.10;99.90;;;;;;5065515;28;19929;-88
2022/01/02 08:04:39;;;;;;;;;;;12.10;99.90;;;;;;5067218;28;20054;-88
2022/01/02 08:07:25;;;;;;;;;;;12.00;99.90;;;;;;5058294;28;19932;-88
2022/01/02 08:10:11;;;;;;;;;;;11.80;99.90;;;;;;5080271;28;19947;-87
2022/01/02 08:12:57;;;;;;;;;;;12.00;99.90;;;;;;5092274;28;19934;-86
2022/01/02 08:15:43;;;;;;;;;;;12.00;99.90;;;;;;5082977;28;19932;-88
2022/01/02 08:18:29;;;;;;;;;;;12.00;99.90;;;;;;5069669;28;20306;-87
2022/01/02 08:21:17;;;;;;;;;;;12.00;99.90;;;;;;5071664;28;19936;-87
2022/01/02 08:24:02;;;;;;;;;;;12.00;99.90;;;;;;5071868;28;19928;-87
2022/01/02 08:26:48;;;;;;;;;;;12.00;99.90;;;;;;5070318;28;19951;-88
2022/01/02 08:29:35;;;;;;;;;;;12.00;99.90;;;;;;5071559;28;20406;-86
2022/01/02 08:32:20;;;;;;;;;;;12.00;99.90;;;;;;5089275;28;19951;-88
2022/01/02 08:35:10;;;;;;;;;;;12.00;99.90;;;;;;5094956;28;20221;-88
2022/01/02 08:37:57;;;;;;;;;;;11.90;99.90;;;;;;5110323;28;19938;-85
2022/01/02 08:40:49;;;;;;;;;;;11.90;99.90;;;;;;5123883;28;19935;-87
2022/01/02 08:43:35;;;;;;;;;;;11.80;99.90;;;;;;5106514;28;19931;-87
2022/01/02 08:46:21;;;;;;;;;;;11.90;99.90;;;;;;5073131;28;19925;-89
2022/01/02 08:49:07;;;;;;;;;;;11.90;99.90;;;;;;5070903;28;19959;-87
2022/01/02 08:51:55;;;;;;;;;;;11.80;99.90;;;;;;5062116;28;19935;-87
2022/01/02 08:54:40;;;;;;;;;;;12.00;99.90;;;;;;5064753;28;20331;-85
2022/01/02 08:57:26;;;;;;;;;;;12.00;99.90;;;;;;5068279;28;19947;-86
2022/01/02 09:00:13;;;;;;;;;;;12.00;99.90;;;;;;5081755;28;19929;-87
2022/01/02 09:02:59;;;;;;;;;;;12.00;99.90;;;;;;5049709;28;19936;-88
2022/01/02 09:05:46;;;;;;;;;;;12.00;99.90;;;;;;5067333;28;19931;-87
2022/01/02 09:08:32;;;;;;;;;;;12.00;99.90;;;;;;5080571;28;19924;-86
2022/01/02 09:11:18;;;;;;;;;;;11.50;99.90;;;;;;5070092;28;19931;-87
2022/01/02 09:14:04;;;;;;;;;;;12.00;99.90;;;;;;5071271;28;19943;-87
2022/01/02 09:16:50;;;;;;;;;;;11.90;99.90;;;;;;5071370;28;19931;-87
2022/01/02 09:19:36;;;;;;;;;;;11.90;99.90;;;;;;5071927;28;20419;-88
2022/01/02 09:22:22;;;;;;;;;;;11.80;99.90;;;;;;5070156;28;19924;-88
2022/01/02 09:25:09;;;;;;;;;;;11.90;99.90;;;;;;5071773;28;19928;-87
2022/01/02 09:27:55;;;;;;;;;;;11.90;99.90;;;;;;5039370;28;20403;-88
2022/01/02 09:30:41;;;;;;;;;;;11.90;99.90;;;;;;5053933;28;19939;-86
2022/01/02 09:33:27;;;;;;;;;;;11.90;99.90;;;;;;5071853;28;19951;-87
2022/01/02 09:36:14;;;;;;;;;;;11.90;99.90;;;;;;5084255;28;19931;-87
2022/01/02 09:39:00;;;;;;;;;;;11.90;99.90;;;;;;5092647;28;19987;-87
2022/01/02 09:41:46;;;;;;;;;;;11.90;99.90;;;;;;5074293;28;20374;-88
2022/01/02 09:44:32;;;;;;;;;;;12.00;99.90;;;;;;5073126;28;19931;-87
2022/01/02 09:47:21;;;;;;;;;;;11.90;99.90;;;;;;5071765;28;19928;-89
2022/01/02 09:50:08;;;;;;;;;;;12.00;99.90;;;;;;5071781;28;19965;-89
2022/01/02 09:52:54;;;;;;;;;;;12.00;99.90;;;;;;5055538;28;19936;-86
2022/01/02 09:55:22;;;;;;;;;;;12.10;99.90;;;;;;5053906;28;19935;-88
2022/01/02 09:57:52;;;;;;;;;;;12.10;99.90;;;;;;5051433;28;19935;-86
2022/01/02 10:00:20;;;;;;;;;;;12.10;99.90;;;;;;5051047;28;19928;-87
2022/01/02 10:02:57;;;;;;;;;;;12.10;99.90;;;;;;5031645;28;19939;-87
2022/01/02 10:05:26;;;;;;;;;;;12.20;99.90;;;;;;5050175;28;19931;-87
2022/01/02 10:07:54;;;;;;;;;;;12.60;99.90;;;;;;5065296;28;19929;-87
2022/01/02 10:10:33;;;;;;;;;;;12.30;99.90;;;;;;5039447;28;19928;-87
2022/01/02 10:13:02;;;;;;;;;;;12.20;99.90;;;;;;5059530;28;19929;-87
2022/01/02 10:15:31;;;;;;;;;;;12.20;99.90;;;;;;5068171;28;20185;-86
2022/01/02 10:18:01;;;;;;;;;;;12.20;99.90;;;;;;5055624;28;19932;-86
2022/01/02 10:20:31;;;;;;;;;;;12.20;99.90;;;;;;5080396;28;19928;-87
2022/01/02 10:23:02;;;;;;;;;;;12.30;99.90;;;;;;5041231;28;20032;-87
2022/01/02 10:25:49;;;;;;;;;;;12.30;99.90;;;;;;5060689;28;19924;-87
2022/01/02 10:28:18;;;;;;;;;;;12.40;99.90;;;;;;5076919;28;19939;-87
2022/01/02 10:30:46;;;;;;;;;;;12.50;99.90;;;;;;5071271;28;19924;-87
2022/01/02 10:33:14;;;;;;;;;;;12.50;99.90;;;;;;5051059;28;19925;-87
2022/01/02 10:35:41;;;;;;;;;;;12.50;99.90;;;;;;5082841;28;19925;-86
2022/01/02 10:38:16;;;;;;;;;;;12.50;99.90;;;;;;5046111;28;19934;-87
2022/01/02 10:40:44;;;;;;;;;;;12.60;99.90;;;;;;5064491;28;19924;-88
2022/01/02 10:43:24;;;;;;;;;;;12.60;99.90;;;;;;5042258;28;19925;-86
2022/01/02 10:45:52;;;;;;;;;;;12.50;99.90;;;;;;5073076;28;19933;-88
2022/01/02 10:48:33;;;;;;;;;;;12.50;99.90;;;;;;5053891;28;19965;-87
2022/01/02 10:51:15;;;;;;;;;;;12.50;99.90;;;;;;5034228;28;19936;-88
2022/01/02 10:53:56;;;;;;;;;;;12.60;99.90;;;;;;5068947;28;19929;-87
2022/01/02 10:56:26;;;;;;;;;;;12.70;99.90;;;;;;5029123;28;19929;-87
2022/01/02 10:58:57;;;;;;;;;;;12.70;99.90;;;;;;5051655;28;19925;-88
2022/01/02 11:01:25;;;;;;;;;;;12.80;99.90;;;;;;5051718;28;20269;-89
2022/01/02 11:03:54;;;;;;;;;;;12.80;99.90;;;;;;5046139;28;19924;-87
2022/01/02 11:06:27;;;;;;;;;;;12.90;99.90;;;;;;5052001;28;19959;-88
2022/01/02 11:08:58;;;;;;;;;;;13.10;99.90;;;;;;5061054;28;19932;-87
2022/01/02 11:11:25;;;;;;;;;;;12.90;99.90;;;;;;5031722;28;20228;-88
2022/01/02 11:13:53;;;;;;;;;;;12.90;99.90;;;;;;5068185;28;19924;-86
2022/01/02 11:16:20;;;;;;;;;;;12.80;99.90;;;;;;5079376;28;20021;-88
2022/01/02 11:18:48;;;;;;;;;;;12.80;99.90;;;;;;5048001;28;20698;-88
2022/01/02 11:21:16;;;;;;;;;;;12.70;99.90;;;;;;5049562;28;19928;-88
2022/01/02 11:23:43;;;;;;;;;;;12.70;99.90;;;;;;5036795;28;19924;-87
2022/01/02 11:26:34;;;;;;;;;;;12.60;99.90;;;;;;5031303;28;19932;-88
2022/01/02 11:29:14;;;;;;;;;;;13.20;99.90;;;;;;5082508;28;19924;-86
2022/01/02 11:31:46;;;;;;;;;;;12.50;99.90;;;;;;5065046;28;19931;-87
2022/01/02 11:34:24;;;;;;;;;;;12.50;99.90;;;;;;5071460;28;19924;-87
2022/01/02 11:36:53;;;;;;;;;;;12.40;99.90;;;;;;5046575;28;19930;-87
2022/01/02 11:39:20;;;;;;;;;;;12.50;99.90;;;;;;5080962;28;20273;-86
2022/01/02 11:41:51;;;;;;;;;;;12.20;99.90;;;;;;5078950;28;19932;-86
2022/01/02 11:44:22;;;;;;;;;;;12.40;99.90;;;;;;5076917;28;19932;-86
2022/01/02 11:46:52;;;;;;;;;;;12.40;99.90;;;;;;5060483;28;19932;-86
2022/01/02 11:49:21;;;;;;;;;;;12.50;99.90;;;;;;5045736;28;19943;-88
2022/01/02 11:51:52;;;;;;;;;;;12.50;99.90;;;;;;5057724;28;19935;-87
2022/01/02 11:54:40;;;;;;;;;;;12.50;99.90;;;;;;5059442;28;19973;-87
2022/01/02 11:57:11;;;;;;;;;;;12.50;99.90;;;;;;5078103;28;19931;-87
2022/01/02 11:59:38;;;;;;;;;;;12.50;99.90;;;;;;5082984;28;19928;-86
2022/01/02 12:02:18;;;;;;;;;;;12.60;99.90;;;;;;5061668;28;19939;-88
2022/01/02 12:05:14;;;;;;;;;;;12.70;99.90;;;;;;5041761;28;20657;-88
2022/01/02 12:07:53;;;;;;;;;;;12.70;99.90;;;;;;5050287;28;19944;-88
2022/01/02 12:10:26;;;;;;;;;;;12.80;99.90;;;;;;5059156;28;20403;-86
2022/01/02 12:15:29;;;;;;;;;;;12.90;99.90;;;;;;5078729;28;20512;-87
2022/01/02 12:18:05;;;;;;;;;;;12.90;99.90;;;;;;5046783;28;19940;-88
2022/01/02 12:21:07;;;;;;;;;;;12.90;99.90;;;;;;5077015;28;19941;-87
2022/01/02 12:23:40;;;;;;;;;;;12.90;99.90;;;;;;5028478;28;20296;-86
2022/01/02 12:26:12;;;;;;;;;;;12.90;99.90;;;;;;5035524;28;19928;-88
2022/01/02 12:28:56;;;;;;;;;;;12.90;99.90;;;;;;5064141;28;19928;-88
2022/01/02 12:31:38;;;;;;;;;;;12.90;99.90;;;;;;5046681;28;19937;-87
2022/01/02 12:34:08;;;;;;;;;;;12.70;99.90;;;;;;5056704;28;19935;-86
2022/01/02 12:36:37;;;;;;;;;;;13.00;99.90;;;;;;5036570;28;19931;-86
2022/01/02 12:39:06;;;;;;;;;;;12.90;99.90;;;;;;5077287;28;19932;-88
2022/01/02 12:41:35;;;;;;;;;;;12.90;99.90;;;;;;5062849;28;19928;-85
2022/01/02 12:44:04;;;;;;;;;;;12.90;99.90;;;;;;5054902;28;19931;-88
2022/01/02 12:46:32;;;;;;;;;;;12.90;99.90;;;;;;5058163;28;20320;-87
2022/01/02 12:49:00;;;;;;;;;;;12.90;99.90;;;;;;5042008;28;19932;-88
2022/01/02 12:51:30;;;;;;;;;;;12.90;99.90;;;;;;5047790;28;19928;-90
2022/01/02 12:54:07;;;;;;;;;;;12.90;99.90;;;;;;5060762;28;19924;-90
2022/01/02 12:56:41;;;;;;;;;;;12.90;99.90;;;;;;5038896;28;19924;-88
2022/01/02 12:59:11;;;;;;;;;;;12.90;99.90;;;;;;5046663;28;20299;-89
2022/01/02 13:01:56;;;;;;;;;;;12.90;99.90;;;;;;5059215;28;19935;-90
2022/01/02 13:04:36;;;;;;;;;;;12.90;99.90;;;;;;5054666;28;19933;-89
2022/01/02 13:07:14;;;;;;;;;;;13.00;99.90;;;;;;5046238;28;19924;-89
2022/01/02 13:09:46;;;;;;;;;;;12.90;99.90;;;;;;5051611;28;20279;-89
2022/01/02 13:12:21;;;;;;;;;;;12.90;99.90;;;;;;5051440;28;19952;-90
2022/01/02 13:14:57;;;;;;;;;;;12.80;99.90;;;;;;5065187;28;19939;-90
2022/01/02 13:17:31;;;;;;;;;;;12.90;99.90;;;;;;5066437;28;19924;-89
2022/01/02 13:20:04;;;;;;;;;;;12.90;99.90;;;;;;5050751;28;19936;-88
2022/01/02 13:22:33;;;;;;;;;;;12.90;99.90;;;;;;5056140;28;19936;-89
2022/01/02 13:25:25;;;;;;;;;;;12.90;99.90;;;;;;5061048;28;20402;-88
2022/01/02 13:27:58;;;;;;;;;;;12.80;99.90;;;;;;5043775;28;20003;-88
2022/01/02 13:30:39;;;;;;;;;;;12.80;99.90;;;;;;5043230;28;19925;-88
2022/01/02 13:33:18;;;;;;;;;;;12.80;99.90;;;;;;5058036;28;19932;-89
2022/01/02 13:35:50;;;;;;;;;;;12.80;99.90;;;;;;5063025;28;19932;-89
2022/01/02 13:38:18;;;;;;;;;;;12.30;99.90;;;;;;5063126;28;20002;-89
2022/01/02 13:40:47;;;;;;;;;;;12.80;99.90;;;;;;5057334;28;19929;-88
2022/01/02 13:43:16;;;;;;;;;;;13.00;99.90;;;;;;5066452;28;20371;-91
2022/01/02 13:45:46;;;;;;;;;;;13.30;99.90;;;;;;5042523;28;19924;-89
2022/01/02 13:48:22;;;;;;;;;;;13.10;99.90;;;;;;5040851;28;19927;-90
2022/01/02 13:50:52;;;;;;;;;;;13.10;99.90;;;;;;5051692;28;19924;-91
2022/01/02 13:53:26;;;;;;;;;;;13.10;99.90;;;;;;5064450;28;19933;-89
2022/01/02 13:56:03;;;;;;;;;;;13.10;99.90;;;;;;5067145;28;20568;-89
2022/01/02 13:58:38;;;;;;;;;;;13.10;99.90;;;;;;5034837;28;19932;-90
2022/01/02 14:01:14;;;;;;;;;;;13.00;99.90;;;;;;5066046;28;19925;-89
2022/01/02 14:04:02;;;;;;;;;;;12.90;99.90;;;;;;5075765;28;19924;-89
2022/01/02 14:06:38;;;;;;;;;;;12.80;99.90;;;;;;5061832;28;20296;-87
2022/01/02 14:09:14;;;;;;;;;;;12.80;99.90;;;;;;5069531;28;19940;-89
2022/01/02 14:11:43;;;;;;;;;;;12.80;99.90;;;;;;5068551;28;19924;-88
2022/01/02 14:19:39;;;;;;;;;;;11.80;99.90;;;;;;5078926;28;20660;-88
2022/01/02 14:22:07;;;;;;;;;;;12.70;99.90;;;;;;5057614;28;20207;-89
2022/01/02 14:24:42;;;;;;;;;;;12.60;99.90;;;;;;5041550;28;19928;-87
2022/01/02 14:27:13;;;;;;;;;;;12.60;99.90;;;;;;5067049;28;20979;-87
2022/01/02 14:29:41;;;;;;;;;;;12.60;99.90;;;;;;5084103;28;19925;-88
2022/01/02 14:32:09;;;;;;;;;;;12.50;99.90;;;;;;5061848;28;19955;-87
2022/01/02 14:34:36;;;;;;;;;;;12.50;99.90;;;;;;5062561;28;20308;-88
2022/01/02 14:37:04;;;;;;;;;;;12.50;99.90;;;;;;5047406;28;19924;-88
2022/01/02 14:39:31;;;;;;;;;;;12.50;99.90;;;;;;5050661;28;20105;-89
2022/01/02 14:41:59;;;;;;;;;;;12.50;99.90;;;;;;5043251;28;19931;-88
2022/01/02 14:44:27;;;;;;;;;;;12.50;99.90;;;;;;5046127;28;19928;-87
2022/01/02 14:46:55;;;;;;;;;;;12.50;99.90;;;;;;5078617;28;19928;-88
2022/01/02 14:49:23;;;;;;;;;;;12.50;99.90;;;;;;5052138;28;19943;-87
2022/01/02 14:51:50;;;;;;;;;;;12.50;99.90;;;;;;5096437;28;19928;-88
2022/01/02 14:54:18;;;;;;;;;;;12.60;99.90;;;;;;5046599;28;20287;-87
2022/01/02 14:56:45;;;;;;;;;;;12.50;99.90;;;;;;5064781;28;20404;-87
2022/01/02 14:59:13;;;;;;;;;;;12.40;99.90;;;;;;5082399;28;19931;-86
2022/01/02 15:01:41;;;;;;;;;;;12.50;99.90;;;;;;5080161;28;20532;-90
2022/01/02 15:04:09;;;;;;;;;;;12.30;99.90;;;;;;5056410;28;19939;-88
2022/01/02 15:06:43;;;;;;;;;;;12.30;99.90;;;;;;5060514;28;19931;-88
2022/01/02 15:09:26;;;;;;;;;;;12.20;99.90;;;;;;5052632;28;19966;-88
2022/01/02 15:11:54;;;;;;;;;;;12.20;99.90;;;;;;5047324;28;19940;-86
2022/01/02 15:14:22;;;;;;;;;;;12.20;99.90;;;;;;5061060;28;19939;-85
2022/01/02 15:16:52;;;;;;;;;;;12.10;99.90;;;;;;5075772;28;19928;-87
2022/01/02 15:19:21;;;;;;;;;;;12.10;99.90;;;;;;5081681;28;19928;-86
2022/01/02 15:21:49;;;;;;;;;;;12.00;99.90;;;;;;5057329;28;19924;-86
2022/01/02 15:24:17;;;;;;;;;;;12.10;99.90;;;;;;5081504;28;20390;-87
2022/01/02 15:26:44;;;;;;;;;;;12.10;99.90;;;;;;5076706;28;19935;-86
2022/01/02 15:29:12;;;;;;;;;;;12.10;99.90;;;;;;5073246;28;20436;-87
2022/01/02 15:31:39;;;;;;;;;;;12.10;99.90;;;;;;5047797;28;19932;-86
2022/01/02 15:34:07;;;;;;;;;;;12.10;99.90;;;;;;5060237;28;20315;-86
2022/01/02 15:36:34;;;;;;;;;;;12.10;99.90;;;;;;5039925;28;19924;-88
2022/01/02 15:39:02;;;;;;;;;;;12.10;99.90;;;;;;5061662;28;19935;-87
2022/01/02 15:41:31;;;;;;;;;;;12.00;99.90;;;;;;5077725;28;19935;-87
2022/01/02 15:43:58;;;;;;;;;;;13.20;99.90;;;;;;5060553;28;19932;-88
2022/01/02 15:46:25;;;;;;;;;;;12.00;99.90;;;;;;5085062;28;19940;-88
2022/01/02 15:48:58;;;;;;;;;;;11.20;99.90;;;;;;5051884;28;19932;-88